Terminal Aerodrome Forecast
Issued by NWS Cleveland, OH

Home | Current Version | Previous Version | Graphics & Text | Print | Product List | Glossary On
Versions: 1 2 3 4 5 6 7 8 9 10 11 12 13 14 15 16 17 18 19 20 21 22 23 24
000
FTUS41 KCLE 211120
TAFERI
TAF
KERI 211120Z 2112/2212 20005KT 4SM BR OVC010
      TEMPO 2112/2114 2SM -DZ BR OVC006
     FM211400 19005KT 3SM BR OVC006
      TEMPO 2114/2118 1SM -DZ BR OVC003
     FM220300 18005KT 3SM BR OVC003
     FM220800 17005KT 3SM -RA BR OVC003=

USA.gov is the U.S. government's official web portal to all federal, state and local government web resources and services.